createdAt,value
2023-03-17T00:02:16.615Z,3.05
2023-03-17T00:07:18.187Z,2.42
2023-03-17T00:12:19.845Z,2.55
2023-03-17T00:17:21.233Z,2.63
2023-03-17T00:22:22.634Z,2.75
2023-03-17T00:27:24.063Z,2.67
2023-03-17T00:32:25.512Z,2.67
2023-03-17T00:37:26.946Z,2.65
2023-03-17T00:42:28.384Z,2.90
2023-03-17T00:47:29.834Z,2.30
2023-03-17T00:52:31.488Z,2.78
2023-03-17T00:57:33.012Z,2.72
2023-03-17T01:02:34.741Z,2.50
2023-03-17T01:07:37.163Z,2.55
2023-03-17T01:12:38.557Z,2.60
2023-03-17T01:17:40.623Z,2.85
2023-03-17T01:22:42.084Z,2.90
2023-03-17T01:27:45.043Z,3.20
2023-03-17T01:32:46.801Z,3.25
2023-03-17T01:37:49.006Z,3.22
2023-03-17T01:43:02.497Z,2.97
2023-03-17T01:48:04.093Z,3.10
2023-03-17T01:53:06.138Z,2.50
2023-03-17T01:58:08.016Z,3.00
2023-03-17T02:03:09.771Z,2.78
2023-03-17T02:08:11.708Z,2.97
2023-03-17T02:13:13.796Z,3.40
2023-03-17T02:18:15.996Z,3.20
2023-03-17T02:23:19.354Z,3.00
2023-03-17T02:28:26.036Z,2.83
2023-03-17T02:33:27.746Z,2.92
2023-03-17T02:38:29.161Z,3.08
2023-03-17T02:43:30.705Z,3.03
2023-03-17T02:48:33.142Z,3.10
2023-03-17T02:53:34.581Z,3.28
2023-03-17T02:58:36.163Z,3.33
2023-03-17T03:03:37.750Z,3.40
2023-03-17T03:08:39.166Z,2.90
2023-03-17T03:13:40.547Z,2.78
2023-03-17T03:18:41.983Z,2.97
2023-03-17T03:23:43.420Z,3.08
2023-03-17T03:28:44.893Z,3.80
2023-03-17T03:33:46.367Z,3.28
2023-03-17T03:38:47.799Z,3.47
2023-03-17T03:43:49.209Z,3.05
2023-03-17T03:48:50.633Z,2.83
2023-03-17T03:53:52.023Z,3.22
2023-03-17T03:58:53.458Z,2.80
2023-03-17T04:03:54.873Z,2.70
2023-03-17T04:08:58.256Z,3.00
2023-03-17T04:13:59.877Z,2.90
2023-03-17T04:19:01.707Z,2.88
2023-03-17T04:24:05.173Z,2.80
2023-03-17T04:29:08.859Z,2.88
2023-03-17T04:34:15.660Z,3.35
2023-03-17T04:39:17.186Z,2.70
2023-03-17T04:44:18.689Z,3.10
2023-03-17T04:49:20.117Z,2.72
2023-03-17T04:54:22.017Z,3.13
2023-03-17T04:59:23.486Z,2.45
2023-03-17T05:04:31.734Z,2.50
2023-03-17T05:09:33.721Z,2.63
2023-03-17T05:14:35.470Z,2.60
2023-03-17T05:19:36.907Z,2.40
2023-03-17T05:24:38.304Z,2.53
2023-03-17T05:29:39.755Z,2.90
2023-03-17T05:34:41.149Z,2.90
2023-03-17T05:39:42.578Z,2.70
2023-03-17T05:44:44.573Z,2.65
2023-03-17T05:49:46.024Z,2.70
2023-03-17T05:54:49.035Z,2.63
2023-03-17T05:59:51.055Z,2.60
2023-03-17T06:04:52.423Z,2.83
2023-03-17T06:09:53.854Z,2.83
2023-03-17T06:14:55.417Z,3.22
2023-03-17T06:19:56.820Z,3.10
2023-03-17T06:24:58.243Z,2.53
2023-03-17T06:30:00.364Z,3.05
2023-03-17T06:35:02.024Z,2.80
2023-03-17T06:40:04.428Z,2.97
2023-03-17T06:45:06.470Z,2.95
2023-03-17T06:50:09.737Z,3.05
2023-03-17T06:55:12.158Z,2.70
2023-03-17T07:00:14.266Z,2.72
2023-03-17T07:05:15.851Z,3.00
2023-03-17T07:10:18.161Z,3.15
2023-03-17T07:15:20.797Z,3.05
2023-03-17T07:20:22.296Z,3.50
2023-03-17T07:25:23.906Z,3.35
2023-03-17T07:30:25.315Z,2.95
2023-03-17T07:35:28.689Z,2.78
2023-03-17T07:40:30.871Z,2.75
2023-03-17T07:45:35.288Z,2.92
2023-03-17T07:50:37.032Z,3.17
2023-03-17T07:55:38.954Z,3.10
2023-03-17T08:00:40.371Z,3.30
2023-03-17T08:05:41.803Z,3.10
2023-03-17T08:10:43.338Z,3.03
2023-03-17T08:15:45.107Z,2.90
2023-03-17T08:20:46.518Z,3.08
2023-03-17T08:25:48.846Z,3.10
2023-03-17T08:30:50.767Z,3.42
2023-03-17T08:35:53.482Z,3.28
2023-03-17T08:40:55.466Z,3.00
2023-03-17T08:46:02.489Z,2.75
2023-03-17T08:51:04.722Z,3.58
2023-03-17T08:56:07.069Z,3.90
2023-03-17T09:01:10.767Z,2.88
2023-03-17T09:06:13.652Z,3.22
2023-03-17T09:11:16.765Z,3.40
2023-03-17T09:16:18.448Z,3.20
2023-03-17T09:21:21.320Z,3.88
2023-03-17T09:26:25.146Z,3.38
2023-03-17T09:31:26.850Z,3.35
2023-03-17T09:36:28.424Z,3.20
2023-03-17T09:41:45.575Z,2.92
2023-03-17T09:47:05.815Z,3.50
2023-03-17T09:52:11.276Z,3.65
2023-03-17T09:57:16.484Z,3.53
2023-03-17T10:02:27.049Z,3.67
2023-03-17T10:07:38.234Z,3.80
2023-03-17T10:13:03.171Z,3.67
2023-03-17T10:18:14.848Z,3.92
2023-03-17T10:23:17.794Z,4.22
2023-03-17T10:28:32.948Z,3.60
2023-03-17T10:33:34.664Z,4.35
2023-03-17T10:38:36.974Z,4.00
2023-03-17T10:43:44.610Z,3.65
2023-03-17T10:48:50.463Z,4.10
2023-03-17T10:53:52.893Z,3.35
2023-03-17T10:58:55.589Z,4.43
2023-03-17T11:03:57.730Z,4.80
2023-03-17T11:09:05.785Z,4.70
2023-03-17T11:14:14.353Z,5.30
2023-03-17T11:19:17.125Z,4.50
2023-03-17T11:24:27.546Z,5.82
2023-03-17T11:29:34.533Z,4.80
2023-03-17T11:34:36.200Z,5.13
2023-03-17T11:39:44.479Z,5.60
2023-03-17T11:45:04.155Z,4.90
2023-03-17T11:50:13.077Z,5.22
2023-03-17T11:55:27.068Z,5.13
2023-03-17T12:00:33.820Z,4.95
2023-03-17T12:05:37.269Z,5.00
2023-03-17T12:10:50.595Z,4.68
2023-03-17T12:16:10.977Z,4.55
2023-03-17T12:21:27.497Z,4.93
2023-03-17T12:26:52.003Z,4.90
2023-03-17T12:31:57.080Z,5.20
2023-03-17T12:36:58.651Z,5.00
2023-03-17T12:42:02.977Z,5.28
2023-03-17T12:47:04.531Z,5.10
2023-03-17T12:52:05.964Z,5.00
2023-03-17T12:57:17.126Z,6.00
2023-03-17T13:02:24.660Z,5.63
2023-03-17T13:07:31.991Z,6.28
2023-03-17T13:12:55.362Z,6.28
2023-03-17T13:18:15.448Z,6.22
2023-03-17T13:23:17.549Z,5.78
2023-03-17T13:28:27.057Z,6.25
2023-03-17T13:33:31.492Z,6.57
2023-03-17T13:38:42.285Z,5.90
2023-03-17T13:44:02.241Z,6.30
2023-03-17T13:54:24.149Z,5.18
2023-03-17T14:04:47.624Z,6.30
2023-03-17T14:09:52.197Z,6.15
2023-03-17T14:15:06.982Z,5.63
2023-03-17T14:20:15.685Z,6.05
2023-03-17T14:25:18.830Z,6.18
2023-03-17T14:30:22.658Z,7.05
2023-03-17T14:35:24.367Z,6.90
2023-03-17T14:40:28.049Z,6.15
2023-03-17T14:45:46.505Z,5.72
2023-03-17T14:50:53.180Z,5.90
2023-03-17T14:55:54.805Z,5.28
2023-03-17T15:01:02.094Z,6.47
2023-03-17T15:06:23.906Z,6.03
2023-03-17T15:11:26.953Z,6.97
2023-03-17T15:16:30.167Z,6.10
2023-03-17T15:21:41.755Z,5.82
2023-03-17T15:26:43.228Z,6.07
2023-03-17T15:31:44.848Z,6.28
2023-03-17T15:36:47.625Z,7.03
2023-03-17T15:41:49.188Z,7.03
2023-03-17T15:46:51.153Z,6.60
2023-03-17T15:51:52.623Z,6.72
2023-03-17T15:56:54.055Z,6.57
2023-03-17T16:01:55.600Z,7.18
2023-03-17T16:06:57.171Z,6.93
2023-03-17T16:11:58.596Z,6.05
2023-03-17T16:17:00.118Z,7.45
2023-03-17T16:22:01.677Z,6.47
2023-03-17T16:27:03.329Z,6.82
2023-03-17T16:32:04.951Z,6.15
2023-03-17T16:37:08.403Z,6.88
2023-03-17T16:42:20.953Z,7.18
2023-03-17T16:47:22.398Z,6.38
2023-03-17T16:52:23.791Z,6.57
2023-03-17T16:57:25.294Z,8.10
2023-03-17T17:02:26.797Z,6.97
2023-03-17T17:07:28.389Z,6.85
2023-03-17T17:12:29.788Z,6.30
2023-03-17T17:17:31.449Z,7.47
2023-03-17T17:22:32.963Z,8.63
2023-03-17T17:27:34.462Z,8.25
2023-03-17T17:32:36.278Z,7.57
2023-03-17T17:37:37.845Z,8.60
2023-03-17T17:42:39.643Z,8.65
2023-03-17T17:47:41.469Z,8.93
2023-03-17T17:52:42.906Z,10.63
2023-03-17T17:57:44.431Z,9.80
2023-03-17T18:02:45.882Z,8.38
2023-03-17T18:07:47.332Z,8.25
2023-03-17T18:12:48.960Z,7.20
2023-03-17T18:17:51.506Z,8.55
2023-03-17T18:22:52.992Z,9.00
2023-03-17T18:27:55.059Z,8.10
2023-03-17T18:33:02.698Z,7.70
2023-03-17T18:38:04.138Z,7.75
2023-03-17T18:43:06.014Z,8.05
2023-03-17T18:48:07.457Z,8.55
2023-03-17T18:53:08.844Z,9.30
2023-03-17T18:58:10.282Z,9.02
2023-03-17T19:03:12.072Z,9.13
2023-03-17T19:08:15.280Z,9.43
2023-03-17T19:13:17.012Z,9.13
2023-03-17T19:18:18.506Z,10.35
2023-03-17T19:23:20.190Z,10.25
2023-03-17T19:28:21.913Z,11.00
2023-03-17T19:33:23.364Z,11.45
2023-03-17T19:38:25.586Z,10.15
2023-03-17T19:43:39.958Z,12.18
2023-03-17T19:48:42.895Z,11.73
2023-03-17T19:53:44.299Z,12.13
2023-03-17T19:58:46.005Z,11.65
2023-03-17T20:03:47.444Z,11.68
2023-03-17T20:08:48.928Z,11.70
2023-03-17T20:13:50.410Z,11.80
2023-03-17T20:18:51.865Z,12.70
2023-03-17T20:23:53.364Z,14.65
2023-03-17T20:28:56.227Z,12.90
2023-03-17T20:33:57.812Z,13.35
2023-03-17T20:38:59.288Z,13.90
2023-03-17T20:44:00.914Z,14.32
2023-03-17T20:49:03.223Z,13.65
2023-03-17T20:54:05.042Z,12.50
2023-03-17T20:59:09.422Z,14.05
2023-03-17T21:04:12.415Z,13.27
2023-03-17T21:09:14.119Z,13.23
2023-03-17T21:14:16.535Z,13.38
2023-03-17T21:19:18.177Z,14.20
2023-03-17T21:24:28.422Z,14.65
2023-03-17T21:29:30.778Z,16.27
2023-03-17T21:34:32.345Z,16.05
2023-03-17T21:39:34.211Z,15.18
2023-03-17T21:44:35.844Z,14.10
2023-03-17T21:49:37.255Z,12.70
2023-03-17T21:54:38.722Z,13.32
2023-03-17T21:59:40.863Z,12.82
2023-03-17T22:04:43.411Z,11.98
2023-03-17T22:09:44.939Z,13.35
2023-03-17T22:14:46.647Z,12.85
2023-03-17T22:19:48.684Z,11.38
2023-03-17T22:24:50.348Z,11.75
2023-03-17T22:29:51.817Z,11.05
2023-03-17T22:34:53.323Z,10.48
2023-03-17T22:39:54.747Z,10.60
2023-03-17T22:44:56.274Z,11.45
2023-03-17T22:49:57.732Z,11.88
2023-03-17T22:54:59.217Z,10.85
2023-03-17T23:00:00.687Z,10.70
2023-03-17T23:05:02.199Z,11.10
2023-03-17T23:10:04.537Z,10.57
2023-03-17T23:15:06.739Z,11.75
2023-03-17T23:20:09.124Z,10.50
2023-03-17T23:25:10.730Z,10.15
2023-03-17T23:30:13.205Z,8.70
2023-03-17T23:35:14.895Z,8.43
2023-03-17T23:40:17.313Z,8.57
2023-03-17T23:45:19.139Z,8.98
2023-03-17T23:50:21.139Z,9.23
2023-03-17T23:55:23.314Z,9.15
